Airfield :
LOGIN :

Register | Disclaimer

   EN    FR    IT 

 










Legend :    VFR   Marginal VFR   IFR   Intensive IFR   Very Intensive IFR
Visi :
Ceiling :
>= 8 km
>= 3000ft
5 to 8 km
1000 to 3000 ft
1500m to 5 km
500 to 1000 ft
800 to 1500m
200 to 500 ft
< 800m
< 200 ft
Symbols :   Thunderstorms  Fog  Heavy snow  Heavy precipitations  Wind > 20 kt
SIGMETs :     Misc.  Thunderstorms  Icing  Turbulence  Mountain Waves  Volcanic Ashes






- Airport Elevation : 17 ft
- IATA code : MHQ


EFMA - Mariehamn

CURRENT METAR :
  • 162320Z AUTO 13012KT 8000 SHRA OVC004 06/05 Q1010

EXPIRED METARs :
  • 162250Z AUTO 13010KT 100V160 9999 -SHRA OVC006 //////CB 06/05 Q1010
  • 162220Z AUTO 11012KT 080V150 9999 SHRA OVC006 //////CB 06/05 Q1010
  • 162150Z AUTO 14011KT 110V170 9999 -SHRA OVC005 06/05 Q1011
  • 162120Z AUTO 10014G24KT 070V130 9999 -RA OVC006 06/05 Q1010
  • 162050Z AUTO 11011KT 9999 SHRA OVC006 //////CB 06/05 Q1012

TAF TAF EFMA
Valid from the 17 at 00:00 until the 17 at 09:00 UTC


162325Z 1700/1709 13011KT 9999 -RA OVC008
TEMPO 1700/1702 5000 SHRA BKN004 FEW020CB
BECMG 1702/1704 19013KT BKN015



MET'MAP, your aeronautical weather chart ! - Copyright ORBIFLY December 2007 - Disclaimer

ORBIFLY MET'MAP TEAM :

Programming & Development : Alexandra Zaïnal
Concept & Development : Baudouin d'Aumeries
Co-Development & Prog : Marc-Olivier Méhu
Technical & hardware support : Manuel Goepfert

Contact : metmap@orbifly.com




SOURCES & CREDITS :

   NOAA